KFAR

Hector International Airport

Fargo, North Dakota, USA
METAR KFAR 210653Z AUTO 12004KT 10SM CLR 09/04 A3011 RMK AO2 SLP198 T00940039 $
Observed Flight Rules
May-21 @ 06:53 UTC (9 minutes ago) Visual Flight Rules
Wind Visibility Clouds
120° at 4 knots 10 miles
  • Clear skies
Temperatures Readings
Current 9°C / 48°F
Dewpoint 4°C / 39°F
Humidity 71%
Altimeter 30.11" Hg
Pressure 1019.8 hPa
Elevation 277
METAR KFAR 210653Z AUTO 12004KT 10SM CLR 09/04 A3011 RMK AO2 SLP198 T00940039 $
Observed Flight Rules
May-21 @ 06:53 UTC
(9 minutes ago)
VFR
Wind Visibility
120° at 4 knots 10 miles
Clouds
  • Clear skies
Temperature Dewpoint
9°C / 48°F 4°C / 39°F
Humidity Altimeter Pressure
71% 30.11" Hg 1019.8 hPa